Time;durP1;ratioP1;P1;durP2;ratioP2;P2;SDS_P1;SDS_P2;PMS_P1;PMS_P2;Temp;Humidity;BMP_temperature;BMP_pressure;BME280_temperature;BME280_humidity;BME280_pressure;Samples;Min_cycle;Max_cycle;Signal;HPM_P1;HPM_P2
2022/12/19 00:00:50;;;;;;;22.30;20.08;;;23.90;67.00;;;;;;6307762;27;82856;-66
2022/12/19 00:03:54;;;;;;;22.05;19.80;;;23.90;67.00;;;;;;6307053;27;82789;-67
2022/12/19 00:06:58;;;;;;;22.35;20.15;;;23.90;67.00;;;;;;6303372;27;82796;-67
2022/12/19 00:10:00;;;;;;;22.60;20.30;;;23.90;67.00;;;;;;6294250;27;82720;-67
2022/12/19 00:13:02;;;;;;;21.60;19.50;;;23.90;67.00;;;;;;6306323;27;82752;-67
2022/12/19 00:16:06;;;;;;;21.63;19.50;;;23.90;67.00;;;;;;6305052;27;84700;-66
2022/12/19 00:19:09;;;;;;;21.50;19.40;;;23.90;67.00;;;;;;6307294;27;82843;-67
2022/12/19 00:22:12;;;;;;;21.45;19.35;;;23.90;67.00;;;;;;6292282;27;83903;-67
2022/12/19 00:25:14;;;;;;;21.83;19.73;;;23.90;67.00;;;;;;6284880;27;82932;-67
2022/12/19 00:28:17;;;;;;;21.52;19.45;;;23.90;67.00;;;;;;6295201;27;83213;-66
2022/12/19 00:31:20;;;;;;;21.85;19.65;;;23.90;67.00;;;;;;6305864;27;84541;-66
2022/12/19 00:34:22;;;;;;;20.80;18.70;;;23.90;67.00;;;;;;6294786;27;82870;-66
2022/12/19 00:37:25;;;;;;;20.77;18.75;;;23.90;67.00;;;;;;6306428;27;82783;-66
2022/12/19 00:40:27;;;;;;;21.50;19.30;;;23.90;67.00;;;;;;6305251;27;82963;-66
2022/12/19 00:43:29;;;;;;;21.05;18.95;;;23.90;67.00;;;;;;6295483;27;83035;-67
2022/12/19 00:46:33;;;;;;;20.67;18.67;;;23.90;67.00;;;;;;6306323;27;82786;-66
2022/12/19 00:49:35;;;;;;;19.63;17.73;;;23.90;67.00;;;;;;6302305;27;84628;-66
2022/12/19 00:52:38;;;;;;;20.70;18.67;;;23.90;67.00;;;;;;6307254;27;82683;-66
2022/12/19 00:55:40;;;;;;;20.00;18.00;;;23.90;67.00;;;;;;6296846;27;83737;-66
2022/12/19 00:58:43;;;;;;;20.02;18.13;;;23.90;67.00;;;;;;6309207;27;82738;-67
2022/12/19 01:01:45;;;;;;;20.25;18.15;;;23.90;67.00;;;;;;6310961;27;84281;-66
2022/12/19 01:04:47;;;;;;;19.50;17.60;;;23.90;66.90;;;;;;6312447;27;82852;-67
2022/12/19 01:07:50;;;;;;;19.25;17.35;;;23.90;66.90;;;;;;6285416;27;84371;-66
2022/12/19 01:10:52;;;;;;;19.60;17.63;;;23.90;67.00;;;;;;6305669;27;83240;-66
2022/12/19 01:13:53;;;;;;;19.42;17.42;;;23.90;67.10;;;;;;6308311;27;84139;-66
2022/12/19 01:16:55;;;;;;;19.10;17.20;;;23.90;67.10;;;;;;6302264;27;84090;-66
2022/12/19 01:19:57;;;;;;;18.77;16.73;;;23.80;67.10;;;;;;6309529;27;84972;-66
2022/12/19 01:23:00;;;;;;;17.85;16.05;;;23.90;67.20;;;;;;6300783;27;83134;-66
2022/12/19 01:26:02;;;;;;;18.85;16.95;;;23.80;67.90;;;;;;6297722;27;84027;-66
2022/12/19 01:29:05;;;;;;;19.33;17.33;;;23.90;67.10;;;;;;6295453;27;83675;-66
2022/12/19 01:32:07;;;;;;;17.88;16.08;;;23.80;67.10;;;;;;6311176;27;85721;-67
2022/12/19 01:35:09;;;;;;;18.20;16.35;;;23.90;67.10;;;;;;6311363;27;85451;-67
2022/12/19 01:38:15;;;;;;;16.80;15.15;;;23.90;67.10;;;;;;6300622;27;84846;-66
2022/12/19 01:41:17;;;;;;;18.27;16.08;;;23.90;67.00;;;;;;6293791;27;83336;-66
2022/12/19 01:44:19;;;;;;;16.90;15.20;;;23.90;67.00;;;;;;6295818;27;83991;-66
2022/12/19 01:47:21;;;;;;;16.83;15.23;;;23.80;66.90;;;;;;6301218;27;83312;-66
2022/12/19 01:50:29;;;;;;;17.02;15.43;;;23.90;67.10;;;;;;6296896;27;84952;-66
2022/12/19 01:53:38;;;;;;;16.90;15.20;;;23.90;67.10;;;;;;6302104;27;84527;-66
2022/12/19 01:56:45;;;;;;;17.02;15.32;;;23.90;67.00;;;;;;6304401;27;83712;-66
2022/12/19 01:59:51;;;;;;;16.02;14.43;;;23.90;67.10;;;;;;6296831;27;84026;-66
2022/12/19 02:02:57;;;;;;;16.38;14.70;;;23.80;66.90;;;;;;6293119;27;83999;-66
2022/12/19 02:06:00;;;;;;;16.95;15.15;;;23.90;67.10;;;;;;6308668;27;84051;-67
2022/12/19 02:09:04;;;;;;;15.48;13.98;;;23.90;67.00;;;;;;6306887;27;84710;-66
2022/12/19 02:12:06;;;;;;;16.10;14.50;;;23.80;66.90;;;;;;6305649;27;84844;-66
2022/12/19 02:15:10;;;;;;;15.98;14.45;;;23.90;67.00;;;;;;6300495;27;84134;-67
2022/12/19 02:18:24;;;;;;;16.55;14.90;;;23.90;67.00;;;;;;6290191;27;83955;-66
2022/12/19 02:21:36;;;;;;;15.90;14.23;;;23.80;66.90;;;;;;6307222;27;85059;-66
2022/12/19 02:25:08;;;;;;;15.25;13.68;;;23.90;67.00;;;;;;6307200;27;82930;-66
2022/12/19 02:28:35;;;;;;;15.13;13.63;;;23.80;66.90;;;;;;6297540;27;84782;-66
2022/12/19 02:31:46;;;;;;;15.45;13.90;;;23.90;67.10;;;;;;6309156;27;84140;-66
2022/12/19 02:34:56;;;;;;;14.98;13.45;;;23.90;67.00;;;;;;6304679;27;84058;-67
2022/12/19 02:38:09;;;;;;;14.68;13.27;;;23.80;67.00;;;;;;6299268;27;84687;-66
2022/12/19 02:41:21;;;;;;;14.38;13.07;;;23.80;67.00;;;;;;6295959;27;84132;-66
2022/12/19 02:44:29;;;;;;;14.38;12.98;;;23.80;66.90;;;;;;6307598;27;83282;-66
2022/12/19 02:47:34;;;;;;;14.55;13.05;;;23.80;66.90;;;;;;6296875;27;84053;-66
2022/12/19 02:50:41;;;;;;;14.60;13.20;;;23.90;67.10;;;;;;6303024;27;83958;-67
2022/12/19 02:53:43;;;;;;;13.82;12.43;;;23.80;65.60;;;;;;6295172;27;85152;-67
2022/12/19 02:56:52;;;;;;;14.52;13.13;;;23.80;65.30;;;;;;6306704;27;83981;-66
2022/12/19 03:00:03;;;;;;;14.15;12.75;;;23.80;65.90;;;;;;6295118;27;83987;-66
2022/12/19 03:03:12;;;;;;;13.25;11.95;;;23.80;66.20;;;;;;6298690;27;84251;-66
2022/12/19 03:06:23;;;;;;;13.23;11.93;;;23.80;66.30;;;;;;6298709;27;82725;-67
2022/12/19 03:09:36;;;;;;;13.10;11.80;;;23.80;66.40;;;;;;6291892;27;84052;-66
2022/12/19 03:12:45;;;;;;;12.77;11.57;;;23.80;66.50;;;;;;6303386;27;85502;-67
2022/12/19 03:15:47;;;;;;;12.65;11.45;;;23.80;66.60;;;;;;6302361;27;82864;-67
2022/12/19 03:18:51;;;;;;;12.27;11.07;;;23.80;66.70;;;;;;6296391;27;84023;-67
2022/12/19 03:21:53;;;;;;;12.90;11.68;;;23.80;66.60;;;;;;6298237;27;83994;-66
2022/12/19 03:24:55;;;;;;;13.07;11.77;;;23.80;66.60;;;;;;6305847;27;85089;-67
2022/12/19 03:28:01;;;;;;;13.25;11.88;;;23.80;66.60;;;;;;6296170;27;83993;-66
2022/12/19 03:31:05;;;;;;;12.30;11.18;;;23.80;66.70;;;;;;6308066;27;84328;-67
2022/12/19 03:34:15;;;;;;;12.38;11.18;;;23.80;66.70;;;;;;6296745;27;84035;-67
2022/12/19 03:37:22;;;;;;;11.55;10.35;;;23.80;66.70;;;;;;6292490;27;83529;-67
2022/12/19 03:40:26;;;;;;;11.98;10.77;;;23.80;66.40;;;;;;6297896;27;83996;-66
2022/12/19 03:43:30;;;;;;;11.88;10.68;;;23.80;66.40;;;;;;6297406;27;84037;-68
2022/12/19 03:46:35;;;;;;;12.43;10.90;;;23.80;66.60;;;;;;6299299;27;83156;-68
2022/12/19 03:49:38;;;;;;;11.38;10.27;;;23.70;66.60;;;;;;6289793;27;83796;-67
2022/12/19 03:52:48;;;;;;;11.52;10.35;;;23.80;66.80;;;;;;6299506;27;84222;-67
2022/12/19 03:55:58;;;;;;;10.65;9.65;;;23.80;66.90;;;;;;6302327;27;83939;-68
2022/12/19 03:59:03;;;;;;;10.85;9.85;;;23.70;66.90;;;;;;6298097;27;83843;-67
2022/12/19 04:02:06;;;;;;;11.50;10.30;;;23.80;66.90;;;;;;6294248;27;83020;-67
2022/12/19 04:05:13;;;;;;;10.60;9.60;;;23.80;67.00;;;;;;6304085;27;85094;-67
2022/12/19 04:08:16;;;;;;;10.85;9.75;;;23.80;67.10;;;;;;6307099;27;84065;-66
2022/12/19 04:11:20;;;;;;;10.20;9.20;;;23.70;67.10;;;;;;6306157;27;83996;-68
2022/12/19 04:14:28;;;;;;;10.57;9.52;;;23.70;67.10;;;;;;6306529;27;84079;-68
2022/12/19 04:17:37;;;;;;;9.60;8.70;;;23.70;67.20;;;;;;6292216;27;84466;-66
2022/12/19 04:20:45;;;;;;;10.30;9.30;;;23.80;67.30;;;;;;6301878;27;82743;-67
2022/12/19 04:23:53;;;;;;;10.38;9.35;;;23.70;68.20;;;;;;6309052;27;84034;-66
2022/12/19 04:26:59;;;;;;;10.00;9.05;;;23.70;67.40;;;;;;6304648;27;85366;-67
2022/12/19 04:30:02;;;;;;;10.13;9.10;;;23.70;67.40;;;;;;6312103;27;82928;-67
2022/12/19 04:33:04;;;;;;;11.57;9.27;;;23.70;67.40;;;;;;6298290;27;84190;-67
2022/12/19 04:36:10;;;;;;;9.88;8.98;;;23.70;67.40;;;;;;6311248;27;82883;-67
2022/12/19 04:39:12;;;;;;;9.27;8.38;;;23.70;67.50;;;;;;6312201;27;83180;-66
2022/12/19 04:42:14;;;;;;;9.27;8.38;;;23.70;67.60;;;;;;6309476;27;83986;-66
2022/12/19 04:45:16;;;;;;;9.50;8.60;;;23.70;67.60;;;;;;6309503;27;83021;-67
2022/12/19 04:48:18;;;;;;;9.32;8.48;;;23.70;67.60;;;;;;6306471;27;83331;-66
2022/12/19 04:51:22;;;;;;;9.05;8.15;;;23.70;67.70;;;;;;6301765;27;82968;-66
2022/12/19 04:54:24;;;;;;;8.80;7.90;;;23.70;67.70;;;;;;6297185;27;83856;-67
2022/12/19 04:57:28;;;;;;;9.10;8.20;;;23.70;67.70;;;;;;6298993;27;84960;-67
2022/12/19 05:00:30;;;;;;;9.18;8.27;;;23.70;67.70;;;;;;6306774;27;84000;-67
2022/12/19 05:03:32;;;;;;;8.38;7.57;;;23.70;67.80;;;;;;6308572;27;84043;-67
2022/12/19 05:06:36;;;;;;;8.38;7.57;;;23.70;67.80;;;;;;6312114;27;84477;-67
2022/12/19 05:09:38;;;;;;;8.82;7.97;;;23.70;67.90;;;;;;6304484;27;82925;-67
2022/12/19 05:12:40;;;;;;;9.02;8.13;;;23.70;67.80;;;;;;6296028;27;84098;-68
2022/12/19 05:15:42;;;;;;;8.93;8.00;;;23.70;67.90;;;;;;6311820;27;82896;-67
2022/12/19 05:18:44;;;;;;;8.52;7.65;;;23.70;67.90;;;;;;6297649;27;82138;-67
2022/12/19 05:21:48;;;;;;;9.73;8.27;;;23.70;67.90;;;;;;6299751;27;82908;-67
2022/12/19 05:24:49;;;;;;;8.60;7.70;;;23.70;67.90;;;;;;6312005;27;83968;-67
2022/12/19 05:27:51;;;;;;;8.02;7.28;;;23.70;68.00;;;;;;6296872;27;84942;-67
2022/12/19 05:31:03;;;;;;;8.23;7.43;;;23.70;68.10;;;;;;6311782;27;84086;-67
2022/12/19 05:34:05;;;;;;;8.07;7.38;;;23.70;68.10;;;;;;6305055;27;84021;-67
2022/12/19 05:37:08;;;;;;;8.02;7.22;;;23.70;68.10;;;;;;6304464;27;83994;-67
2022/12/19 05:40:11;;;;;;;7.50;6.80;;;23.70;68.20;;;;;;6307427;27;82933;-67
2022/12/19 05:43:13;;;;;;;8.02;7.22;;;23.70;68.20;;;;;;6300209;27;84083;-67
2022/12/19 05:46:15;;;;;;;7.18;6.47;;;23.60;68.10;;;;;;6308690;27;83171;-67
2022/12/19 05:49:17;;;;;;;8.00;7.20;;;23.70;68.30;;;;;;6297731;27;83248;-67
2022/12/19 05:52:21;;;;;;;8.15;7.35;;;23.70;68.30;;;;;;6308592;27;84130;-66
2022/12/19 05:55:23;;;;;;;8.05;7.28;;;23.70;69.10;;;;;;6299923;27;83394;-67
2022/12/19 05:58:25;;;;;;;7.15;6.53;;;23.70;68.30;;;;;;6310381;27;84996;-67
2022/12/19 06:01:29;;;;;;;7.20;6.50;;;23.60;68.30;;;;;;6299144;27;84279;-67
2022/12/19 06:04:31;;;;;;;7.63;6.93;;;23.70;68.40;;;;;;6300105;27;82735;-67
2022/12/19 06:07:34;;;;;;;7.82;7.03;;;23.60;68.60;;;;;;6302763;27;83974;-67
2022/12/19 06:10:36;;;;;;;8.05;7.28;;;23.60;68.60;;;;;;6310208;27;82949;-67
2022/12/19 06:13:39;;;;;;;7.82;7.03;;;23.60;68.50;;;;;;6310582;27;83976;-66
2022/12/19 06:16:41;;;;;;;7.47;6.78;;;23.60;68.40;;;;;;6297261;27;83990;-66
2022/12/19 06:19:43;;;;;;;8.07;7.25;;;23.60;68.40;;;;;;6299480;27;83304;-67
2022/12/19 06:22:46;;;;;;;7.47;6.68;;;23.50;68.40;;;;;;6306937;27;82826;-66
2022/12/19 06:25:48;;;;;;;7.68;6.95;;;23.50;68.40;;;;;;6301489;27;84167;-67
2022/12/19 06:28:52;;;;;;;7.43;6.72;;;23.50;68.40;;;;;;6302701;27;84972;-66
2022/12/19 06:31:54;;;;;;;7.43;6.68;;;23.50;68.30;;;;;;6305279;27;84057;-67
2022/12/19 06:34:56;;;;;;;7.53;6.82;;;23.50;68.30;;;;;;6303983;27;84674;-66
2022/12/19 06:37:59;;;;;;;7.65;6.95;;;23.50;68.30;;;;;;6306528;27;84113;-66
2022/12/19 06:44:22;;;;;;;7.32;6.40;;;23.50;68.40;;;;;;6299049;27;83900;-67
2022/12/19 06:47:25;;;;;;;8.30;7.45;;;23.50;68.30;;;;;;6298807;27;84643;-67
2022/12/19 06:50:27;;;;;;;7.53;6.78;;;23.50;68.30;;;;;;6304423;27;82245;-67
2022/12/19 06:53:30;;;;;;;7.80;6.68;;;23.50;68.30;;;;;;6304422;27;83272;-67
2022/12/19 06:56:35;;;;;;;7.28;6.57;;;23.50;68.20;;;;;;6308464;27;82922;-66
2022/12/19 06:59:37;;;;;;;7.40;6.70;;;23.50;68.20;;;;;;6308513;27;85039;-67
2022/12/19 07:02:42;;;;;;;7.70;6.93;;;23.50;68.10;;;;;;6296969;27;83128;-66
2022/12/19 07:05:44;;;;;;;6.72;6.13;;;23.60;68.10;;;;;;6308201;27;84051;-67
2022/12/19 07:08:48;;;;;;;7.40;6.70;;;23.50;68.00;;;;;;6309716;27;83129;-66
2022/12/19 07:11:50;;;;;;;7.68;6.75;;;23.60;68.00;;;;;;6285940;27;84155;-66
2022/12/19 07:14:52;;;;;;;7.40;6.43;;;23.60;68.00;;;;;;6297849;27;84014;-67
2022/12/19 07:17:54;;;;;;;7.68;6.95;;;23.60;67.90;;;;;;6305460;27;84031;-66
2022/12/19 07:20:56;;;;;;;7.18;6.47;;;23.60;67.90;;;;;;6300778;27;83204;-67
2022/12/19 07:24:01;;;;;;;7.20;6.50;;;23.60;67.80;;;;;;6300346;27;84068;-67
2022/12/19 07:27:03;;;;;;;7.55;6.75;;;23.60;67.80;;;;;;6292545;27;83740;-67
2022/12/19 07:30:07;;;;;;;6.85;6.25;;;23.70;67.80;;;;;;6308257;27;84811;-67
2022/12/19 07:33:09;;;;;;;6.93;6.30;;;23.60;67.70;;;;;;6298608;27;83991;-67
2022/12/19 07:36:11;;;;;;;7.50;6.57;;;23.70;67.70;;;;;;6296878;27;84292;-66
2022/12/19 07:39:15;;;;;;;7.35;6.65;;;23.70;68.20;;;;;;6303402;27;84272;-67
2022/12/19 07:42:17;;;;;;;6.97;6.30;;;23.70;67.60;;;;;;6300366;27;84023;-66
2022/12/19 07:45:19;;;;;;;7.65;6.85;;;23.70;67.60;;;;;;6308160;27;84370;-67
2022/12/19 07:48:21;;;;;;;7.68;6.82;;;23.70;67.60;;;;;;6303075;27;84043;-67
2022/12/19 07:51:23;;;;;;;7.03;6.35;;;23.70;67.60;;;;;;6285632;27;83305;-66
2022/12/19 07:54:26;;;;;;;6.85;6.25;;;23.70;67.60;;;;;;6303261;27;83939;-66
2022/12/19 07:57:28;;;;;;;6.75;6.15;;;23.70;67.50;;;;;;6306829;27;82960;-67
2022/12/19 08:00:30;;;;;;;7.63;6.90;;;23.70;67.40;;;;;;6293309;27;84917;-66
2022/12/19 08:03:32;;;;;;;7.47;6.65;;;23.70;67.40;;;;;;6298321;27;84120;-66
2022/12/19 08:06:34;;;;;;;6.93;6.22;;;23.70;67.40;;;;;;6300655;27;84130;-67
2022/12/19 08:09:38;;;;;;;7.07;6.38;;;23.70;67.40;;;;;;6289790;27;84090;-67
2022/12/19 08:12:40;;;;;;;7.30;6.60;;;23.70;67.40;;;;;;6308522;27;84153;-67
2022/12/19 08:15:42;;;;;;;7.68;6.97;;;23.70;67.30;;;;;;6308248;27;84119;-67
2022/12/19 08:18:44;;;;;;;7.82;6.80;;;23.70;67.40;;;;;;6294225;27;84078;-67
2022/12/19 08:21:46;;;;;;;7.47;6.78;;;23.70;67.20;;;;;;6295841;27;82549;-67
2022/12/19 08:24:49;;;;;;;6.60;6.00;;;23.70;67.30;;;;;;6292277;27;82922;-67
2022/12/19 08:27:51;;;;;;;7.30;6.60;;;23.70;67.30;;;;;;6301916;27;83960;-67
2022/12/19 08:30:53;;;;;;;6.43;5.82;;;23.70;67.20;;;;;;6307840;27;84987;-67
2022/12/19 08:33:57;;;;;;;6.70;6.10;;;23.80;67.30;;;;;;6294981;27;84157;-67
2022/12/19 08:36:59;;;;;;;6.70;6.10;;;23.70;67.20;;;;;;6307644;27;84451;-66
2022/12/19 08:40:03;;;;;;;6.70;6.05;;;23.70;67.20;;;;;;6304491;27;84058;-66
2022/12/19 08:43:05;;;;;;;7.18;6.47;;;23.70;67.20;;;;;;6307503;27;84390;-67
2022/12/19 08:46:08;;;;;;;6.90;6.20;;;23.70;67.10;;;;;;6305296;27;84026;-66
2022/12/19 08:49:10;;;;;;;7.05;6.35;;;23.70;67.10;;;;;;6291713;27;84027;-67
2022/12/19 08:52:12;;;;;;;6.88;6.18;;;23.80;67.20;;;;;;6296700;27;82210;-67
2022/12/19 08:55:16;;;;;;;6.65;5.95;;;23.80;67.20;;;;;;6284778;27;82945;-66
2022/12/19 08:58:18;;;;;;;6.25;5.68;;;23.80;67.20;;;;;;6296458;27;83949;-66
2022/12/19 09:01:22;;;;;;;6.70;6.10;;;23.70;67.10;;;;;;6296321;27;84948;-67
2022/12/19 09:04:24;;;;;;;6.38;5.78;;;23.80;67.10;;;;;;6296408;27;83951;-67
2022/12/19 09:07:26;;;;;;;6.68;6.07;;;23.80;67.20;;;;;;6297422;27;83011;-67
2022/12/19 09:10:30;;;;;;;6.45;5.85;;;23.80;67.10;;;;;;6300490;27;84248;-67
2022/12/19 09:13:33;;;;;;;6.68;6.07;;;23.80;67.10;;;;;;6304889;27;83977;-67
2022/12/19 09:16:35;;;;;;;6.65;6.05;;;23.80;67.10;;;;;;6301939;27;83808;-67
2022/12/19 09:19:37;;;;;;;6.82;6.10;;;23.80;67.10;;;;;;6301731;27;82997;-67
2022/12/19 09:22:39;;;;;;;6.72;6.13;;;23.80;66.90;;;;;;6309794;27;83404;-67
2022/12/19 09:25:42;;;;;;;6.05;5.45;;;23.90;67.00;;;;;;6310995;27;83964;-67
2022/12/19 09:28:46;;;;;;;6.53;5.93;;;23.90;67.00;;;;;;6303577;27;82900;-66
2022/12/19 09:31:48;;;;;;;6.45;5.85;;;23.80;66.90;;;;;;6295117;27;84912;-67
2022/12/19 09:34:50;;;;;;;6.40;5.80;;;23.90;67.00;;;;;;6308334;27;84364;-67
2022/12/19 09:37:52;;;;;;;6.35;5.75;;;23.90;67.00;;;;;;6307698;27;84188;-67
2022/12/19 09:41:16;;;;;;;6.82;6.18;;;23.90;67.00;;;;;;6306460;27;84450;-67
2022/12/19 09:44:32;;;;;;;6.47;5.88;;;23.90;67.00;;;;;;6304587;27;84110;-67
2022/12/19 09:47:36;;;;;;;6.47;5.88;;;23.90;67.00;;;;;;6304824;27;83267;-67
2022/12/19 09:50:48;;;;;;;6.30;5.70;;;23.90;67.00;;;;;;6296504;27;84035;-67
2022/12/19 09:53:58;;;;;;;6.50;5.85;;;23.90;67.10;;;;;;6292813;27;83242;-66
2022/12/19 09:57:06;;;;;;;6.80;6.03;;;23.90;67.00;;;;;;6308653;27;84369;-67
2022/12/19 10:00:13;;;;;;;6.65;5.80;;;23.90;67.00;;;;;;6287944;27;83980;-67
2022/12/19 10:03:21;;;;;;;5.70;5.20;;;23.90;67.00;;;;;;6298744;27;84949;-67
2022/12/19 10:06:24;;;;;;;5.93;5.43;;;23.90;67.00;;;;;;6293266;27;84052;-66
2022/12/19 10:09:32;;;;;;;6.07;5.57;;;23.90;67.00;;;;;;6302301;27;82829;-67
2022/12/19 10:12:52;;;;;;;6.07;5.47;;;23.90;67.10;;;;;;6310689;27;83135;-67
2022/12/19 10:16:01;;;;;;;6.53;5.93;;;23.90;67.00;;;;;;6310183;27;82514;-67
2022/12/19 10:19:07;;;;;;;5.88;5.38;;;23.90;67.00;;;;;;6309687;27;84354;-67
2022/12/19 10:22:17;;;;;;;5.90;5.40;;;23.90;67.00;;;;;;6302767;27;83002;-67
2022/12/19 10:25:45;;;;;;;6.00;5.40;;;23.90;67.00;;;;;;6311153;27;83164;-67
2022/12/19 10:29:03;;;;;;;6.07;5.53;;;23.90;67.00;;;;;;6299555;27;84148;-66
2022/12/19 10:32:15;;;;;;;6.30;5.70;;;23.90;67.00;;;;;;6299873;27;84130;-67
2022/12/19 10:35:19;;;;;;;6.72;6.05;;;23.90;67.00;;;;;;6297345;27;85267;-67
2022/12/19 10:38:29;;;;;;;5.60;5.10;;;23.90;67.00;;;;;;6297895;27;83869;-67
2022/12/19 10:41:32;;;;;;;6.07;5.47;;;23.90;67.00;;;;;;6302607;27;82875;-66
2022/12/19 10:44:40;;;;;;;6.10;5.50;;;23.90;67.00;;;;;;6309439;27;84033;-67
2022/12/19 10:47:42;;;;;;;5.65;5.15;;;23.90;67.00;;;;;;6298864;27;83260;-67
2022/12/19 10:50:44;;;;;;;6.07;5.47;;;23.90;67.00;;;;;;6298825;27;84023;-67
2022/12/19 10:53:53;;;;;;;6.25;5.75;;;23.90;67.00;;;;;;6297753;27;84014;-67
2022/12/19 10:56:55;;;;;;;6.20;5.70;;;23.90;67.00;;;;;;6297928;27;83325;-67
2022/12/19 11:00:01;;;;;;;6.22;5.63;;;23.90;67.00;;;;;;6284776;27;84051;-67
2022/12/19 11:03:13;;;;;;;5.68;5.18;;;23.90;67.00;;;;;;6298475;27;84091;-67
2022/12/19 11:06:40;;;;;;;5.90;5.40;;;23.90;67.00;;;;;;6307108;27;84695;-66
2022/12/19 11:09:43;;;;;;;5.75;5.25;;;23.90;67.00;;;;;;6290757;27;83908;-67
2022/12/19 11:12:52;;;;;;;6.05;5.47;;;24.00;67.10;;;;;;6309867;27;84058;-67
2022/12/19 11:15:57;;;;;;;5.95;5.38;;;24.00;67.10;;;;;;6308827;27;84083;-66
2022/12/19 11:18:59;;;;;;;6.55;5.80;;;24.00;67.10;;;;;;6308534;27;84295;-67
2022/12/19 11:22:05;;;;;;;5.75;5.25;;;23.90;67.00;;;;;;6309651;27;84100;-67
2022/12/19 11:25:16;;;;;;;5.95;5.38;;;24.00;67.10;;;;;;6309964;27;84360;-67
2022/12/19 11:28:20;;;;;;;5.50;5.00;;;24.00;67.00;;;;;;6308854;27;82176;-66
2022/12/19 11:31:25;;;;;;;5.78;5.28;;;24.00;67.00;;;;;;6307327;27;84269;-66
2022/12/19 11:34:29;;;;;;;6.03;5.43;;;24.00;67.00;;;;;;6308902;27;83935;-66
2022/12/19 11:37:39;;;;;;;5.80;5.30;;;24.00;67.00;;;;;;6306680;27;84993;-66
2022/12/19 11:40:46;;;;;;;5.47;4.97;;;24.00;67.10;;;;;;6308271;27;84186;-67
2022/12/19 11:43:53;;;;;;;5.88;5.28;;;23.90;67.00;;;;;;6307147;27;84019;-66
2022/12/19 11:47:04;;;;;;;5.75;5.25;;;23.90;67.00;;;;;;6303101;27;82940;-66
2022/12/19 11:50:14;;;;;;;5.95;5.43;;;24.00;67.10;;;;;;6300312;27;83218;-66
2022/12/19 11:53:23;;;;;;;5.78;5.28;;;23.90;67.00;;;;;;6296937;27;83989;-66
2022/12/19 11:56:26;;;;;;;5.88;5.38;;;24.00;67.10;;;;;;6295366;27;83981;-66
2022/12/19 11:59:31;;;;;;;5.45;4.95;;;24.00;67.10;;;;;;6307915;27;83389;-67
2022/12/19 12:03:04;;;;;;;5.82;5.22;;;24.00;67.10;;;;;;6301618;27;82911;-66
2022/12/19 12:06:12;;;;;;;5.78;5.28;;;23.90;66.90;;;;;;6284364;27;84009;-67
2022/12/19 12:09:23;;;;;;;5.43;4.93;;;24.00;67.10;;;;;;6297561;27;85991;-66
2022/12/19 12:12:28;;;;;;;5.25;4.78;;;24.00;67.10;;;;;;6305396;27;84070;-67
2022/12/19 12:15:44;;;;;;;5.50;5.05;;;24.00;67.00;;;;;;6308535;27;84112;-66
2022/12/19 12:19:00;;;;;;;5.78;5.28;;;24.00;67.10;;;;;;6299595;27;83026;-67
2022/12/19 12:22:17;;;;;;;5.45;4.95;;;24.00;67.00;;;;;;6304011;27;84152;-66
2022/12/19 12:25:30;;;;;;;5.68;5.18;;;24.00;67.00;;;;;;6300398;27;83196;-67
2022/12/19 12:28:58;;;;;;;5.70;5.20;;;24.00;67.10;;;;;;6296937;27;83897;-66
2022/12/19 12:32:14;;;;;;;5.75;5.25;;;24.00;67.00;;;;;;6295915;27;83348;-67
2022/12/19 12:35:28;;;;;;;5.72;5.22;;;24.00;67.00;;;;;;6284443;27;82995;-66
2022/12/19 12:38:47;;;;;;;5.43;4.93;;;24.00;67.00;;;;;;6284144;27;83448;-66
2022/12/19 12:42:05;;;;;;;5.68;5.18;;;24.00;67.00;;;;;;6282649;27;84973;-67
2022/12/19 12:45:19;;;;;;;6.03;5.43;;;24.00;67.00;;;;;;6312747;27;84064;-67
2022/12/19 12:48:26;;;;;;;5.85;5.30;;;24.00;66.90;;;;;;6306739;27;82934;-66
2022/12/19 12:51:32;;;;;;;5.07;4.63;;;24.00;66.90;;;;;;6306828;27;82941;-66
2022/12/19 12:54:37;;;;;;;5.57;5.07;;;24.00;67.00;;;;;;6312272;27;83265;-66
2022/12/19 12:57:39;;;;;;;5.68;5.18;;;24.00;67.00;;;;;;6306480;27;84027;-67
2022/12/19 13:01:08;;;;;;;5.60;5.10;;;24.00;66.90;;;;;;6294792;27;84070;-66
2022/12/19 13:04:23;;;;;;;5.50;5.00;;;24.00;66.90;;;;;;6301415;27;83336;-66
2022/12/19 13:07:41;;;;;;;5.70;5.20;;;24.00;67.00;;;;;;6302008;27;83656;-67
2022/12/19 13:10:54;;;;;;;5.50;5.00;;;24.00;66.90;;;;;;6303591;27;83990;-66
2022/12/19 13:13:57;;;;;;;5.50;5.00;;;24.00;66.90;;;;;;6300554;27;85400;-66
2022/12/19 13:16:59;;;;;;;5.38;4.88;;;24.00;66.90;;;;;;6307648;27;83914;-66
2022/12/19 13:20:42;;;;;;;5.60;5.00;;;24.00;66.90;;;;;;6306543;27;83940;-66
2022/12/19 13:23:47;;;;;;;5.78;5.28;;;24.00;66.90;;;;;;6311519;27;83956;-66
2022/12/19 13:26:51;;;;;;;5.80;5.30;;;24.00;66.90;;;;;;6309944;27;84063;-67
2022/12/19 13:29:56;;;;;;;5.30;4.80;;;24.00;67.00;;;;;;6310323;27;84078;-66
2022/12/19 13:33:10;;;;;;;5.63;5.13;;;24.00;66.90;;;;;;6311297;27;83006;-66
2022/12/19 13:36:46;;;;;;;5.20;4.70;;;24.00;66.90;;;;;;6311933;27;83611;-66
2022/12/19 13:40:01;;;;;;;4.93;4.50;;;24.00;66.80;;;;;;6309000;27;84188;-66
2022/12/19 13:46:41;;;;;;;5.22;4.80;;;24.00;66.90;;;;;;6303793;27;83092;-66
2022/12/19 13:49:44;;;;;;;5.28;4.80;;;24.00;66.90;;;;;;6308003;27;84024;-65
2022/12/19 13:52:49;;;;;;;5.40;4.90;;;24.00;66.90;;;;;;6299067;27;84143;-66
2022/12/19 13:55:56;;;;;;;5.10;4.70;;;24.00;66.90;;;;;;6306974;27;84440;-66
2022/12/19 13:59:01;;;;;;;5.30;4.80;;;24.00;66.90;;;;;;6302972;27;83989;-66
2022/12/19 14:02:08;;;;;;;5.13;4.72;;;24.00;66.90;;;;;;6297263;27;84017;-66
2022/12/19 14:05:22;;;;;;;5.50;5.00;;;24.00;66.90;;;;;;6308329;27;83416;-66
2022/12/19 14:08:27;;;;;;;5.18;4.68;;;24.00;66.90;;;;;;6308266;27;82467;-65
2022/12/19 14:11:31;;;;;;;5.78;5.07;;;24.00;67.00;;;;;;6311340;27;84091;-66
2022/12/19 14:17:53;;;;;;;5.15;4.65;;;24.00;66.90;;;;;;6297865;27;83211;-65
2022/12/19 14:21:14;;;;;;;5.22;4.72;;;24.00;67.00;;;;;;6309517;27;83987;-66
2022/12/19 14:24:18;;;;;;;5.30;4.80;;;24.10;67.10;;;;;;6299665;27;84140;-66
2022/12/19 14:27:27;;;;;;;5.13;4.70;;;24.10;67.10;;;;;;6298648;27;84162;-66
2022/12/19 14:30:32;;;;;;;4.85;4.45;;;24.10;67.10;;;;;;6311415;27;84838;-66
2022/12/19 14:33:38;;;;;;;4.75;4.35;;;24.00;66.90;;;;;;6298699;27;84200;-66
2022/12/19 14:36:46;;;;;;;5.07;4.68;;;24.00;67.10;;;;;;6296843;27;83990;-65
2022/12/19 14:39:48;;;;;;;5.05;4.63;;;24.10;67.10;;;;;;6310528;27;83282;-66
2022/12/19 14:46:28;;;;;;;4.97;4.57;;;24.00;67.00;;;;;;6288069;27;83874;-66
2022/12/19 14:49:33;;;;;;;4.90;4.50;;;24.10;67.10;;;;;;6308825;27;84991;-66
2022/12/19 14:52:40;;;;;;;4.70;4.30;;;24.10;67.10;;;;;;6304106;27;84232;-66
2022/12/19 14:55:45;;;;;;;4.80;4.40;;;24.00;67.00;;;;;;6303658;27;84257;-66
2022/12/19 14:58:57;;;;;;;5.18;4.70;;;24.00;67.00;;;;;;6295204;27;83969;-66
2022/12/19 15:02:03;;;;;;;5.15;4.65;;;24.10;67.10;;;;;;6289359;27;83965;-66
2022/12/19 15:05:07;;;;;;;5.65;4.68;;;24.10;67.10;;;;;;6286096;27;84102;-66
2022/12/19 15:08:11;;;;;;;4.60;4.20;;;24.10;67.10;;;;;;6310124;27;82942;-66
2022/12/19 15:14:49;;;;;;;5.00;4.60;;;24.10;67.10;;;;;;6306451;27;84254;-66
2022/12/19 15:17:56;;;;;;;4.85;4.45;;;24.00;67.00;;;;;;6309201;27;82968;-66
2022/12/19 15:21:00;;;;;;;4.63;4.20;;;24.00;67.10;;;;;;6308268;27;85001;-66
2022/12/19 15:24:02;;;;;;;4.72;4.32;;;24.10;67.10;;;;;;6287276;27;83066;-66
2022/12/19 15:27:04;;;;;;;4.70;4.30;;;24.00;67.00;;;;;;6302097;27;84034;-66
2022/12/19 15:30:15;;;;;;;5.00;4.50;;;24.00;67.00;;;;;;6303980;27;82917;-66
2022/12/19 15:33:17;;;;;;;5.07;4.68;;;24.00;67.10;;;;;;6307780;27;84176;-66
2022/12/19 15:36:20;;;;;;;5.00;4.60;;;24.10;67.10;;;;;;6301737;27;82801;-66
2022/12/19 15:39:23;;;;;;;5.18;4.68;;;24.10;67.00;;;;;;6297714;27;84076;-67
2022/12/19 15:42:27;;;;;;;4.75;4.35;;;24.10;67.00;;;;;;6289185;27;83312;-66
2022/12/19 15:45:31;;;;;;;5.25;4.75;;;24.10;67.10;;;;;;6304159;27;84151;-66
2022/12/19 15:48:37;;;;;;;5.22;4.72;;;24.10;67.00;;;;;;6300890;27;84105;-66
2022/12/19 15:51:39;;;;;;;5.00;4.60;;;24.10;67.10;;;;;;6300739;27;85624;-66
2022/12/19 15:54:41;;;;;;;4.72;4.32;;;24.10;67.00;;;;;;6301803;27;83961;-66
2022/12/19 15:57:46;;;;;;;4.70;4.30;;;24.10;67.00;;;;;;6292904;27;84121;-66
2022/12/19 16:00:54;;;;;;;4.97;4.57;;;24.00;66.90;;;;;;6302700;27;84089;-66
2022/12/19 16:03:58;;;;;;;4.60;4.20;;;24.00;66.90;;;;;;6302927;27;84113;-66
2022/12/19 16:07:00;;;;;;;5.28;4.78;;;24.10;67.00;;;;;;6292109;27;83207;-66
2022/12/19 16:10:02;;;;;;;5.45;4.93;;;24.00;66.90;;;;;;6305935;27;84056;-67
2022/12/19 16:13:04;;;;;;;5.57;5.07;;;24.10;67.90;;;;;;6302036;27;83257;-66
2022/12/19 16:16:10;;;;;;;4.88;4.47;;;24.00;66.90;;;;;;6302938;27;84036;-66